CheckWX is a tool to help pilots better visualize weather data.  It is not intended as a substitute for an official pre-flight weather briefing.

02:16:13 UTC

ENSE METAR
Snorre A Oilp
Snorre A Oilp, Norway
Current

26 mins ago

ENSE 250150Z AUTO 23016KT 9999NDV FEW025/// OVC062/// 07/03 Q1007 W///S6
Observed
Jan-25 @ 01:50 UTC
Wind
  • 230° at 16 KTS
Visibility
Cloud Levels
  • Few at 2,500' AGL
  • Overcast at 6,200' AGL
Temperature
C / 45°F
Dewpoint
C / 37°F
Humidity
76%
Altimeter
29.73" Hg
Pressure
1006.92 hPa
Previous

56 mins ago

ENSE 250120Z AUTO 24018KT 9999NDV FEW022/// BKN050/// OVC074/// 07/03 Q1007 W///S6
Observed
Jan-25 @ 01:20 UTC
Wind
  • 240° at 18 KTS
Visibility
Cloud Levels
  • Few at 2,200' AGL
  • Broken at 5,000' AGL
  • Overcast at 7,400' AGL
Temperature
C / 45°F
Dewpoint
C / 37°F
Humidity
76%
Altimeter
29.73" Hg
Pressure
1006.92 hPa
Previous

1 hour ago

ENSE 250050Z AUTO 25017KT 9999NDV BKN024/// 07/02 Q1007 W///S6
Observed
Jan-25 @ 00:50 UTC
Wind
  • 250° at 17 KTS
Visibility
Cloud Levels
  • Broken at 2,400' AGL
Temperature
C / 45°F
Dewpoint
C / 36°F
Humidity
71%
Altimeter
29.73" Hg
Pressure
1006.92 hPa